sensor_id;sensor_type;location;lat;lon;timestamp;pressure;altitude;pressure_sealevel;temperature;humidity
3524;BME280;1776;53.330;11.498;2022-08-01T00:01:14;53635.84;;;-147.39;71.31
3524;BME280;1776;53.330;11.498;2022-08-01T00:03:40;53607.16;;;-147.39;71.02
3524;BME280;1776;53.330;11.498;2022-08-01T00:06:05;53621.50;;;-147.39;70.92
3524;BME280;1776;53.330;11.498;2022-08-01T00:08:30;53631.75;;;-147.39;71.04
3524;BME280;1776;53.330;11.498;2022-08-01T00:10:56;53633.81;;;-147.39;70.82
3524;BME280;1776;53.330;11.498;2022-08-01T00:13:21;53615.38;;;-147.39;70.39
3524;BME280;1776;53.330;11.498;2022-08-01T00:15:46;53652.25;;;-147.39;70.16
3524;BME280;1776;53.330;11.498;2022-08-01T00:18:12;53609.22;;;-147.39;70.03
3524;BME280;1776;53.330;11.498;2022-08-01T00:20:37;53611.25;;;-147.39;69.46
3524;BME280;1776;53.330;11.498;2022-08-01T00:23:03;53615.38;;;-147.39;69.97
3524;BME280;1776;53.330;11.498;2022-08-01T00:25:28;53621.50;;;-147.39;70.45
3524;BME280;1776;53.330;11.498;2022-08-01T00:27:53;53607.16;;;-147.39;69.99
3524;BME280;1776;53.330;11.498;2022-08-01T00:30:19;53623.56;;;-147.39;70.62
3524;BME280;1776;53.330;11.498;2022-08-01T00:32:44;53633.81;;;-147.39;70.72
3524;BME280;1776;53.330;11.498;2022-08-01T00:35:10;53611.25;;;-147.39;70.65
3524;BME280;1776;53.330;11.498;2022-08-01T00:37:36;53631.75;;;-147.39;70.71
3524;BME280;1776;53.330;11.498;2022-08-01T00:40:01;53650.19;;;-147.39;70.84
3524;BME280;1776;53.330;11.498;2022-08-01T00:42:27;53728.03;;;-147.39;70.50
3524;BME280;1776;53.330;11.498;2022-08-01T00:44:52;53603.06;;;-147.39;70.24
3524;BME280;1776;53.330;11.498;2022-08-01T00:47:17;53672.72;;;-147.39;70.38
3524;BME280;1776;53.330;11.498;2022-08-01T00:49:43;53775.16;;;-147.39;70.35
3524;BME280;1776;53.330;11.498;2022-08-01T00:52:09;53633.81;;;-147.39;70.16
3524;BME280;1776;53.330;11.498;2022-08-01T00:54:35;53611.25;;;-147.39;70.54
3524;BME280;1776;53.330;11.498;2022-08-01T00:57:00;53637.91;;;-147.39;70.61
3524;BME280;1776;53.330;11.498;2022-08-01T00:59:26;53658.38;;;-147.39;70.72
3524;BME280;1776;53.330;11.498;2022-08-01T01:01:51;53627.66;;;-147.39;70.84
3524;BME280;1776;53.330;11.498;2022-08-01T01:04:17;53637.91;;;-147.39;71.15
3524;BME280;1776;53.330;11.498;2022-08-01T01:09:33;53619.47;;;-147.39;70.58
3524;BME280;1776;53.330;11.498;2022-08-01T01:12:13;53619.47;;;-147.39;70.38
3524;BME280;1776;53.330;11.498;2022-08-01T01:17:13;53615.38;;;-147.39;70.66
3524;BME280;1776;53.330;11.498;2022-08-01T01:19:47;53627.66;;;-147.39;70.69
3524;BME280;1776;53.330;11.498;2022-08-01T01:26:01;53623.56;;;-147.39;70.07
3524;BME280;1776;53.330;11.498;2022-08-01T01:28:08;53623.56;;;-147.39;71.19
3524;BME280;1776;53.330;11.498;2022-08-01T01:30:35;53660.44;;;-147.39;71.72
3524;BME280;1776;53.330;11.498;2022-08-01T01:33:05;53646.09;;;-147.39;71.67
3524;BME280;1776;53.330;11.498;2022-08-01T01:35:35;53639.94;;;-147.39;71.86
3524;BME280;1776;53.330;11.498;2022-08-01T01:38:05;53611.25;;;-147.39;71.58
3524;BME280;1776;53.330;11.498;2022-08-01T01:40:32;53646.09;;;-147.39;72.00
3524;BME280;1776;53.330;11.498;2022-08-01T01:42:58;53639.94;;;-147.39;72.33
3524;BME280;1776;53.330;11.498;2022-08-01T01:45:25;53646.09;;;-147.39;72.22
3524;BME280;1776;53.330;11.498;2022-08-01T01:47:52;53642.00;;;-147.39;71.60
3524;BME280;1776;53.330;11.498;2022-08-01T01:50:20;53633.81;;;-147.39;71.67
3524;BME280;1776;53.330;11.498;2022-08-01T01:52:46;53642.00;;;-147.39;71.95
3524;BME280;1776;53.330;11.498;2022-08-01T01:55:13;53627.66;;;-147.39;71.67
3524;BME280;1776;53.330;11.498;2022-08-01T01:57:41;53639.94;;;-147.39;71.49
3524;BME280;1776;53.330;11.498;2022-08-01T02:00:11;53650.19;;;-147.39;71.40
3524;BME280;1776;53.330;11.498;2022-08-01T02:02:37;53619.47;;;-147.39;71.27
3524;BME280;1776;53.330;11.498;2022-08-01T02:05:05;53662.47;;;-147.39;71.74
3524;BME280;1776;53.330;11.498;2022-08-01T02:07:32;53617.41;;;-147.39;71.53
3524;BME280;1776;53.330;11.498;2022-08-01T02:10:00;53615.38;;;-147.39;71.54
3524;BME280;1776;53.330;11.498;2022-08-01T02:12:27;53617.41;;;-147.39;71.14
3524;BME280;1776;53.330;11.498;2022-08-01T02:14:54;53623.56;;;-147.39;70.89
3524;BME280;1776;53.330;11.498;2022-08-01T02:17:21;53635.84;;;-147.39;70.98
3524;BME280;1776;53.330;11.498;2022-08-01T02:19:49;53635.84;;;-147.39;71.05
3524;BME280;1776;53.330;11.498;2022-08-01T02:25:05;53646.09;;;-147.39;71.08
3524;BME280;1776;53.330;11.498;2022-08-01T02:27:39;53617.41;;;-147.39;70.62
3524;BME280;1776;53.330;11.498;2022-08-01T02:30:08;53631.75;;;-147.39;70.92
3524;BME280;1776;53.330;11.498;2022-08-01T02:32:42;53660.44;;;-147.39;70.77
3524;BME280;1776;53.330;11.498;2022-08-01T02:35:17;53633.81;;;-147.39;70.91
3524;BME280;1776;53.330;11.498;2022-08-01T02:37:45;53633.81;;;-147.39;71.42
3524;BME280;1776;53.330;11.498;2022-08-01T02:40:12;53611.25;;;-147.39;71.33
3524;BME280;1776;53.330;11.498;2022-08-01T02:42:44;53644.03;;;-147.39;72.50
3524;BME280;1776;53.330;11.498;2022-08-01T02:45:11;53629.69;;;-147.39;71.70
3524;BME280;1776;53.330;11.498;2022-08-01T02:47:38;53611.25;;;-147.39;71.30
3524;BME280;1776;53.330;11.498;2022-08-01T02:50:05;53611.25;;;-147.39;71.33
3524;BME280;1776;53.330;11.498;2022-08-01T02:52:33;53644.03;;;-147.39;70.81
3524;BME280;1776;53.330;11.498;2022-08-01T02:55:00;53633.81;;;-147.39;71.04
3524;BME280;1776;53.330;11.498;2022-08-01T02:57:27;53637.91;;;-147.39;70.40
3524;BME280;1776;53.330;11.498;2022-08-01T02:59:55;53629.69;;;-147.39;70.75
3524;BME280;1776;53.330;11.498;2022-08-01T03:02:24;53627.66;;;-147.39;70.36
3524;BME280;1776;53.330;11.498;2022-08-01T03:04:52;53596.94;;;-147.39;70.61
3524;BME280;1776;53.330;11.498;2022-08-01T03:07:18;53631.75;;;-147.39;70.35
3524;BME280;1776;53.330;11.498;2022-08-01T03:09:45;53603.06;;;-147.39;70.79
3524;BME280;1776;53.330;11.498;2022-08-01T03:12:15;53707.56;;;-147.39;70.30
3524;BME280;1776;53.330;11.498;2022-08-01T03:14:42;53648.13;;;-147.39;70.42
3524;BME280;1776;53.330;11.498;2022-08-01T03:17:09;53639.94;;;-147.39;70.47
3524;BME280;1776;53.330;11.498;2022-08-01T03:19:38;53648.13;;;-147.39;70.70
3524;BME280;1776;53.330;11.498;2022-08-01T03:22:06;53633.81;;;-147.39;71.00
3524;BME280;1776;53.330;11.498;2022-08-01T03:24:33;53621.50;;;-147.39;70.45
3524;BME280;1776;53.330;11.498;2022-08-01T03:26:59;53601.03;;;-147.39;70.59
3524;BME280;1776;53.330;11.498;2022-08-01T03:29:27;53617.41;;;-147.39;70.78
3524;BME280;1776;53.330;11.498;2022-08-01T03:31:55;53621.50;;;-147.39;70.77
3524;BME280;1776;53.330;11.498;2022-08-01T03:34:21;53635.84;;;-147.39;70.43
3524;BME280;1776;53.330;11.498;2022-08-01T03:36:49;53656.34;;;-147.39;70.81
3524;BME280;1776;53.330;11.498;2022-08-01T03:39:17;53619.47;;;-147.39;70.27
3524;BME280;1776;53.330;11.498;2022-08-01T03:41:48;53625.59;;;-147.39;70.17
3524;BME280;1776;53.330;11.498;2022-08-01T03:44:15;53629.69;;;-147.39;70.23
3524;BME280;1776;53.330;11.498;2022-08-01T03:46:46;53629.69;;;-147.39;71.29
3524;BME280;1776;53.330;11.498;2022-08-01T03:49:23;53637.91;;;-147.39;71.21
3524;BME280;1776;53.330;11.498;2022-08-01T03:51:51;53646.09;;;-147.39;71.46
3524;BME280;1776;53.330;11.498;2022-08-01T03:54:21;53642.00;;;-147.39;71.64
3524;BME280;1776;53.330;11.498;2022-08-01T03:56:49;53648.13;;;-147.39;70.92
3524;BME280;1776;53.330;11.498;2022-08-01T03:59:17;53635.84;;;-147.39;70.66
3524;BME280;1776;53.330;11.498;2022-08-01T04:01:44;53613.31;;;-147.39;70.71
3524;BME280;1776;53.330;11.498;2022-08-01T04:04:10;53662.47;;;-147.39;70.64
3524;BME280;1776;53.330;11.498;2022-08-01T04:06:39;53652.25;;;-147.39;70.72
3524;BME280;1776;53.330;11.498;2022-08-01T04:09:07;53648.13;;;-147.39;71.01
3524;BME280;1776;53.330;11.498;2022-08-01T04:11:32;53648.13;;;-147.39;71.93
3524;BME280;1776;53.330;11.498;2022-08-01T04:13:58;53603.06;;;-147.39;72.07
3524;BME280;1776;53.330;11.498;2022-08-01T04:16:23;53646.09;;;-147.39;72.02
3524;BME280;1776;53.330;11.498;2022-08-01T04:18:49;53631.75;;;-147.39;71.85
3524;BME280;1776;53.330;11.498;2022-08-01T04:21:17;53637.91;;;-147.39;71.90
3524;BME280;1776;53.330;11.498;2022-08-01T04:23:45;53615.38;;;-147.39;72.27
3524;BME280;1776;53.330;11.498;2022-08-01T04:26:12;53639.94;;;-147.39;72.38
3524;BME280;1776;53.330;11.498;2022-08-01T04:28:39;53658.38;;;-147.39;72.19
3524;BME280;1776;53.330;11.498;2022-08-01T04:31:08;53642.00;;;-147.39;72.10
3524;BME280;1776;53.330;11.498;2022-08-01T04:33:38;53633.81;;;-147.39;72.01
3524;BME280;1776;53.330;11.498;2022-08-01T04:36:06;53625.59;;;-147.39;72.66
3524;BME280;1776;53.330;11.498;2022-08-01T04:38:34;53654.28;;;-147.39;72.43
3524;BME280;1776;53.330;11.498;2022-08-01T04:41:04;53619.47;;;-147.39;71.99
3524;BME280;1776;53.330;11.498;2022-08-01T04:43:31;53627.66;;;-147.39;72.16
3524;BME280;1776;53.330;11.498;2022-08-01T04:45:57;53639.94;;;-147.39;72.46
3524;BME280;1776;53.330;11.498;2022-08-01T04:48:23;53650.19;;;-147.39;72.05
3524;BME280;1776;53.330;11.498;2022-08-01T04:50:50;53639.94;;;-147.39;72.37
3524;BME280;1776;53.330;11.498;2022-08-01T04:53:17;53668.63;;;-147.39;72.38
3524;BME280;1776;53.330;11.498;2022-08-01T04:55:43;53619.47;;;-147.39;72.66
3524;BME280;1776;53.330;11.498;2022-08-01T04:58:12;53672.72;;;-147.39;72.58
3524;BME280;1776;53.330;11.498;2022-08-01T05:00:38;53644.03;;;-147.39;72.43
3524;BME280;1776;53.330;11.498;2022-08-01T05:03:03;53629.69;;;-147.39;72.29
3524;BME280;1776;53.330;11.498;2022-08-01T05:05:29;53639.94;;;-147.39;72.41
3524;BME280;1776;53.330;11.498;2022-08-01T05:07:55;53652.25;;;-147.39;72.42
3524;BME280;1776;53.330;11.498;2022-08-01T05:10:21;53648.13;;;-147.39;72.41
3524;BME280;1776;53.330;11.498;2022-08-01T05:12:46;53662.47;;;-147.39;72.57
3524;BME280;1776;53.330;11.498;2022-08-01T05:15:11;53658.38;;;-147.39;72.64
3524;BME280;1776;53.330;11.498;2022-08-01T05:17:37;53656.34;;;-147.39;72.63
3524;BME280;1776;53.330;11.498;2022-08-01T05:20:02;53652.25;;;-147.39;72.19
3524;BME280;1776;53.330;11.498;2022-08-01T05:22:27;53642.00;;;-147.39;72.53
3524;BME280;1776;53.330;11.498;2022-08-01T05:24:53;53648.13;;;-147.39;72.51
3524;BME280;1776;53.330;11.498;2022-08-01T05:27:18;53623.56;;;-147.39;72.30
3524;BME280;1776;53.330;11.498;2022-08-01T05:29:44;53662.47;;;-147.39;72.39
3524;BME280;1776;53.330;11.498;2022-08-01T05:32:09;53818.19;;;-147.39;72.09
3524;BME280;1776;53.330;11.498;2022-08-01T05:34:35;53664.53;;;-147.39;72.45
3524;BME280;1776;53.330;11.498;2022-08-01T05:37:00;53596.94;;;-147.39;72.35
3524;BME280;1776;53.330;11.498;2022-08-01T05:39:26;53642.00;;;-147.39;72.19
3524;BME280;1776;53.330;11.498;2022-08-01T05:41:51;53648.13;;;-147.39;72.24
3524;BME280;1776;53.330;11.498;2022-08-01T05:44:16;53662.47;;;-147.39;72.13
3524;BME280;1776;53.330;11.498;2022-08-01T05:46:42;53654.28;;;-147.39;72.20
3524;BME280;1776;53.330;11.498;2022-08-01T05:49:07;53629.69;;;-147.39;72.20
3524;BME280;1776;53.330;11.498;2022-08-01T05:51:33;53629.69;;;-147.39;72.34
3524;BME280;1776;53.330;11.498;2022-08-01T05:53:59;53656.34;;;-147.39;72.26
3524;BME280;1776;53.330;11.498;2022-08-01T05:56:25;53633.81;;;-147.39;72.16
3524;BME280;1776;53.330;11.498;2022-08-01T05:58:51;53664.53;;;-147.39;71.77
3524;BME280;1776;53.330;11.498;2022-08-01T06:01:17;53637.91;;;-147.39;71.96
3524;BME280;1776;53.330;11.498;2022-08-01T06:03:43;53713.69;;;-147.39;71.92
3524;BME280;1776;53.330;11.498;2022-08-01T06:06:08;53633.81;;;-147.39;72.06
3524;BME280;1776;53.330;11.498;2022-08-01T06:08:33;53637.91;;;-147.39;71.78
3524;BME280;1776;53.330;11.498;2022-08-01T06:10:59;53644.03;;;-147.39;71.62
3524;BME280;1776;53.330;11.498;2022-08-01T06:13:24;53668.63;;;-147.39;71.97
3524;BME280;1776;53.330;11.498;2022-08-01T06:15:50;53666.56;;;-147.39;72.05
3524;BME280;1776;53.330;11.498;2022-08-01T06:18:15;53670.69;;;-147.39;71.78
3524;BME280;1776;53.330;11.498;2022-08-01T06:20:41;53619.47;;;-147.39;71.25
3524;BME280;1776;53.330;11.498;2022-08-01T06:23:07;53652.25;;;-147.39;71.62
3524;BME280;1776;53.330;11.498;2022-08-01T06:25:32;53668.63;;;-147.39;71.57
3524;BME280;1776;53.330;11.498;2022-08-01T06:27:58;53644.03;;;-147.39;71.42
3524;BME280;1776;53.330;11.498;2022-08-01T06:30:24;53650.19;;;-147.39;71.62
3524;BME280;1776;53.330;11.498;2022-08-01T06:32:49;53654.28;;;-147.39;71.93
3524;BME280;1776;53.330;11.498;2022-08-01T06:35:15;53658.38;;;-147.39;71.70
3524;BME280;1776;53.330;11.498;2022-08-01T06:37:40;53637.91;;;-147.39;71.84
3524;BME280;1776;53.330;11.498;2022-08-01T06:40:09;53670.69;;;-147.39;71.50
3524;BME280;1776;53.330;11.498;2022-08-01T06:42:34;53707.56;;;-147.39;71.18
3524;BME280;1776;53.330;11.498;2022-08-01T06:45:06;53682.97;;;-147.39;71.25
3524;BME280;1776;53.330;11.498;2022-08-01T06:47:32;53621.50;;;-147.39;71.18
3524;BME280;1776;53.330;11.498;2022-08-01T06:49:57;53646.09;;;-147.39;70.62
3524;BME280;1776;53.330;11.498;2022-08-01T06:52:23;53644.03;;;-147.39;70.43
3524;BME280;1776;53.330;11.498;2022-08-01T06:54:48;53664.53;;;-147.39;70.62
3524;BME280;1776;53.330;11.498;2022-08-01T06:57:14;53656.34;;;-147.39;70.20
3524;BME280;1776;53.330;11.498;2022-08-01T06:59:39;53687.06;;;-147.39;69.91
3524;BME280;1776;53.330;11.498;2022-08-01T07:02:04;53609.22;;;-147.39;70.07
3524;BME280;1776;53.330;11.498;2022-08-01T07:04:30;53619.47;;;-147.39;69.54
3524;BME280;1776;53.330;11.498;2022-08-01T07:06:56;53678.88;;;-147.39;69.21
3524;BME280;1776;53.330;11.498;2022-08-01T07:09:21;53625.59;;;-147.39;69.44
3524;BME280;1776;53.330;11.498;2022-08-01T07:11:46;53635.84;;;-147.39;69.17
3524;BME280;1776;53.330;11.498;2022-08-01T07:14:12;53650.19;;;-147.39;68.37
3524;BME280;1776;53.330;11.498;2022-08-01T07:16:37;53650.19;;;-147.39;68.45
3524;BME280;1776;53.330;11.498;2022-08-01T07:19:02;53637.91;;;-147.39;68.21
3524;BME280;1776;53.330;11.498;2022-08-01T07:21:28;53635.84;;;-147.39;68.15
3524;BME280;1776;53.330;11.498;2022-08-01T07:23:53;53623.56;;;-147.39;68.48
3524;BME280;1776;53.330;11.498;2022-08-01T07:26:18;53617.41;;;-147.39;68.15
3524;BME280;1776;53.330;11.498;2022-08-01T07:28:43;53650.19;;;-147.39;68.28
3524;BME280;1776;53.330;11.498;2022-08-01T07:31:09;53639.94;;;-147.39;68.44
3524;BME280;1776;53.330;11.498;2022-08-01T07:33:34;53637.91;;;-147.39;67.92
3524;BME280;1776;53.330;11.498;2022-08-01T07:35:59;53637.91;;;-147.39;68.36
3524;BME280;1776;53.330;11.498;2022-08-01T07:38:25;53652.25;;;-147.39;68.24
3524;BME280;1776;53.330;11.498;2022-08-01T07:40:51;53601.03;;;-147.39;68.63
3524;BME280;1776;53.330;11.498;2022-08-01T07:43:16;53652.25;;;-147.39;68.87
3524;BME280;1776;53.330;11.498;2022-08-01T07:45:42;53625.59;;;-147.39;68.93
3524;BME280;1776;53.330;11.498;2022-08-01T07:48:07;53654.28;;;-147.39;69.17
3524;BME280;1776;53.330;11.498;2022-08-01T07:50:33;53670.69;;;-147.39;68.64
3524;BME280;1776;53.330;11.498;2022-08-01T07:52:59;53592.81;;;-147.39;68.49
3524;BME280;1776;53.330;11.498;2022-08-01T07:55:24;53654.28;;;-147.39;69.20
3524;BME280;1776;53.330;11.498;2022-08-01T07:57:50;53646.09;;;-147.39;68.50
3524;BME280;1776;53.330;11.498;2022-08-01T08:00:15;53637.91;;;-147.39;68.36
3524;BME280;1776;53.330;11.498;2022-08-01T08:02:41;53650.19;;;-147.39;68.05
3524;BME280;1776;53.330;11.498;2022-08-01T08:05:06;53607.16;;;-147.39;67.39
3524;BME280;1776;53.330;11.498;2022-08-01T08:07:32;53601.03;;;-147.39;67.42
3524;BME280;1776;53.330;11.498;2022-08-01T08:09:58;53648.13;;;-147.39;67.21
3524;BME280;1776;53.330;11.498;2022-08-01T08:12:23;53621.50;;;-147.39;67.31
3524;BME280;1776;53.330;11.498;2022-08-01T08:14:49;53648.13;;;-147.39;67.08
3524;BME280;1776;53.330;11.498;2022-08-01T08:17:14;53619.47;;;-147.39;66.71
3524;BME280;1776;53.330;11.498;2022-08-01T08:19:39;53619.47;;;-147.39;66.40
3524;BME280;1776;53.330;11.498;2022-08-01T08:22:07;53625.59;;;-147.39;66.19
3524;BME280;1776;53.330;11.498;2022-08-01T08:24:33;53625.59;;;-147.39;65.81
3524;BME280;1776;53.330;11.498;2022-08-01T08:26:59;53629.69;;;-147.39;65.51
3524;BME280;1776;53.330;11.498;2022-08-01T08:29:26;53615.38;;;-147.39;65.23
3524;BME280;1776;53.330;11.498;2022-08-01T08:31:52;53627.66;;;-147.39;64.91
3524;BME280;1776;53.330;11.498;2022-08-01T08:34:19;53623.56;;;-147.39;64.71
3524;BME280;1776;53.330;11.498;2022-08-01T08:36:44;53627.66;;;-147.39;64.29
3524;BME280;1776;53.330;11.498;2022-08-01T08:39:09;53598.97;;;-147.39;64.54
3524;BME280;1776;53.330;11.498;2022-08-01T08:41:35;53603.06;;;-147.39;63.96
3524;BME280;1776;53.330;11.498;2022-08-01T08:44:02;53605.13;;;-147.39;63.92
3524;BME280;1776;53.330;11.498;2022-08-01T08:46:28;53603.06;;;-147.39;63.92
3524;BME280;1776;53.330;11.498;2022-08-01T08:48:55;53617.41;;;-147.39;63.14
3524;BME280;1776;53.330;11.498;2022-08-01T08:51:23;53623.56;;;-147.39;62.97
3524;BME280;1776;53.330;11.498;2022-08-01T08:53:51;53625.59;;;-147.39;63.01
3524;BME280;1776;53.330;11.498;2022-08-01T08:56:19;53625.59;;;-147.39;62.91
3524;BME280;1776;53.330;11.498;2022-08-01T08:58:45;53601.03;;;-147.39;62.95
3524;BME280;1776;53.330;11.498;2022-08-01T09:01:11;53650.19;;;-147.39;62.32
3524;BME280;1776;53.330;11.498;2022-08-01T09:03:38;53678.88;;;-147.39;62.48
3524;BME280;1776;53.330;11.498;2022-08-01T09:06:03;53601.03;;;-147.39;62.17
3524;BME280;1776;53.330;11.498;2022-08-01T09:08:29;53617.41;;;-147.39;62.09
3524;BME280;1776;53.330;11.498;2022-08-01T09:10:54;53594.88;;;-147.39;61.85
3524;BME280;1776;53.330;11.498;2022-08-01T09:13:19;53613.31;;;-147.39;61.96
3524;BME280;1776;53.330;11.498;2022-08-01T09:15:45;53617.41;;;-147.39;61.59
3524;BME280;1776;53.330;11.498;2022-08-01T09:18:33;53623.56;;;-147.39;61.27
3524;BME280;1776;53.330;11.498;2022-08-01T09:21:15;53613.31;;;-147.39;61.57
3524;BME280;1776;53.330;11.498;2022-08-01T09:23:47;53760.81;;;-147.39;61.31
3524;BME280;1776;53.330;11.498;2022-08-01T09:26:15;53609.22;;;-147.39;61.02
3524;BME280;1776;53.330;11.498;2022-08-01T09:28:41;53598.97;;;-147.39;61.13
3524;BME280;1776;53.330;11.498;2022-08-01T09:31:18;53605.13;;;-147.39;61.12
3524;BME280;1776;53.330;11.498;2022-08-01T09:33:55;53613.31;;;-147.39;60.78
3524;BME280;1776;53.330;11.498;2022-08-01T09:36:22;53607.16;;;-147.39;60.28
3524;BME280;1776;53.330;11.498;2022-08-01T09:38:49;53611.25;;;-147.39;60.73
3524;BME280;1776;53.330;11.498;2022-08-01T09:41:14;53582.59;;;-147.39;60.36
3524;BME280;1776;53.330;11.498;2022-08-01T09:43:47;53592.81;;;-147.39;59.61
3524;BME280;1776;53.330;11.498;2022-08-01T09:46:12;53603.06;;;-147.39;59.04
3524;BME280;1776;53.330;11.498;2022-08-01T09:48:38;53584.63;;;-147.39;58.95
3524;BME280;1776;53.330;11.498;2022-08-01T09:51:07;53613.31;;;-147.39;58.57
3524;BME280;1776;53.330;11.498;2022-08-01T09:53:47;53584.63;;;-147.39;58.69
3524;BME280;1776;53.330;11.498;2022-08-01T09:56:14;53586.69;;;-147.39;58.61
3524;BME280;1776;53.330;11.498;2022-08-01T09:58:57;53598.97;;;-147.39;58.36
3524;BME280;1776;53.330;11.498;2022-08-01T10:01:23;53568.25;;;-147.39;58.46
3524;BME280;1776;53.330;11.498;2022-08-01T10:04:28;53574.38;;;-147.39;58.14
3524;BME280;1776;53.330;11.498;2022-08-01T10:07:03;53586.69;;;-147.39;58.06
3524;BME280;1776;53.330;11.498;2022-08-01T10:09:31;53605.13;;;-147.39;58.18
3524;BME280;1776;53.330;11.498;2022-08-01T10:11:58;53574.38;;;-147.39;58.40
3524;BME280;1776;53.330;11.498;2022-08-01T10:14:25;53592.81;;;-147.39;58.37
3524;BME280;1776;53.330;11.498;2022-08-01T10:16:52;53584.63;;;-147.39;57.99
3524;BME280;1776;53.330;11.498;2022-08-01T10:19:21;53586.69;;;-147.39;57.90
3524;BME280;1776;53.330;11.498;2022-08-01T10:21:47;53598.97;;;-147.39;57.93
3524;BME280;1776;53.330;11.498;2022-08-01T10:24:16;53580.53;;;-147.39;57.90
3524;BME280;1776;53.330;11.498;2022-08-01T10:26:43;53582.59;;;-147.39;58.29
3524;BME280;1776;53.330;11.498;2022-08-01T10:29:09;53582.59;;;-147.39;58.44
3524;BME280;1776;53.330;11.498;2022-08-01T10:31:37;53598.97;;;-147.39;58.95
3524;BME280;1776;53.330;11.498;2022-08-01T10:34:03;53586.69;;;-147.39;59.17
3524;BME280;1776;53.330;11.498;2022-08-01T10:36:29;53594.88;;;-147.39;58.81
3524;BME280;1776;53.330;11.498;2022-08-01T10:38:55;53588.72;;;-147.39;58.33
3524;BME280;1776;53.330;11.498;2022-08-01T10:41:21;53592.81;;;-147.39;58.71
3524;BME280;1776;53.330;11.498;2022-08-01T10:43:46;53553.91;;;-147.39;58.42
3524;BME280;1776;53.330;11.498;2022-08-01T10:46:12;53560.06;;;-147.39;58.20
3524;BME280;1776;53.330;11.498;2022-08-01T10:48:59;53551.84;;;-147.39;57.36
3524;BME280;1776;53.330;11.498;2022-08-01T10:51:26;53564.16;;;-147.39;56.50
3524;BME280;1776;53.330;11.498;2022-08-01T10:53:53;53566.19;;;-147.39;56.25
3524;BME280;1776;53.330;11.498;2022-08-01T10:56:22;53580.53;;;-147.39;56.53
3524;BME280;1776;53.330;11.498;2022-08-01T10:58:48;53549.81;;;-147.39;56.33
3524;BME280;1776;53.330;11.498;2022-08-01T11:01:25;53574.38;;;-147.39;55.88
3524;BME280;1776;53.330;11.498;2022-08-01T11:06:51;53580.53;;;-147.39;55.84
3524;BME280;1776;53.330;11.498;2022-08-01T11:09:28;53576.44;;;-147.39;56.04
3524;BME280;1776;53.330;11.498;2022-08-01T11:14:26;53568.25;;;-147.39;56.29
3524;BME280;1776;53.330;11.498;2022-08-01T11:16:52;53570.28;;;-147.39;56.26
3524;BME280;1776;53.330;11.498;2022-08-01T11:19:17;53578.50;;;-147.39;56.27
3524;BME280;1776;53.330;11.498;2022-08-01T11:32:55;53517.03;;;-147.39;52.54
3524;BME280;1776;53.330;11.498;2022-08-01T11:35:22;53535.47;;;-147.39;52.61
3524;BME280;1776;53.330;11.498;2022-08-01T11:37:50;53510.88;;;-147.39;51.73
3524;BME280;1776;53.330;11.498;2022-08-01T11:40:28;53500.66;;;-147.39;51.61
3524;BME280;1776;53.330;11.498;2022-08-01T11:45:49;53504.75;;;-147.39;51.74
3524;BME280;1776;53.330;11.498;2022-08-01T11:48:22;53629.69;;;-147.39;50.87
3524;BME280;1776;53.330;11.498;2022-08-01T11:50:49;53517.03;;;-147.39;50.26
3524;BME280;1776;53.330;11.498;2022-08-01T11:53:15;53512.94;;;-147.39;51.02
3524;BME280;1776;53.330;11.498;2022-08-01T11:55:46;53498.59;;;-147.39;49.66
3524;BME280;1776;53.330;11.498;2022-08-01T11:58:14;53492.44;;;-147.39;49.88
3524;BME280;1776;53.330;11.498;2022-08-01T12:00:40;53465.81;;;-147.39;49.65
3524;BME280;1776;53.330;11.498;2022-08-01T12:03:07;53480.16;;;-147.39;48.93
3524;BME280;1776;53.330;11.498;2022-08-01T12:05:34;53502.69;;;-147.39;47.59
3524;BME280;1776;53.330;11.498;2022-08-01T12:08:02;53502.69;;;-147.39;47.89
3524;BME280;1776;53.330;11.498;2022-08-01T12:10:35;53523.19;;;-147.39;48.12
3524;BME280;1776;53.330;11.498;2022-08-01T12:13:05;53523.19;;;-147.39;47.86
3524;BME280;1776;53.330;11.498;2022-08-01T12:15:33;53514.97;;;-147.39;47.80
3524;BME280;1776;53.330;11.498;2022-08-01T12:18:01;53486.31;;;-147.39;47.23
3524;BME280;1776;53.330;11.498;2022-08-01T12:20:30;53467.88;;;-147.39;47.34
3524;BME280;1776;53.330;11.498;2022-08-01T12:23:16;53465.81;;;-147.39;46.92
3524;BME280;1776;53.330;11.498;2022-08-01T12:25:41;53482.22;;;-147.39;46.74
3524;BME280;1776;53.330;11.498;2022-08-01T12:28:10;53496.53;;;-147.39;47.01
3524;BME280;1776;53.330;11.498;2022-08-01T12:30:37;53476.06;;;-147.39;46.07
3524;BME280;1776;53.330;11.498;2022-08-01T12:33:07;53484.25;;;-147.39;45.94
3524;BME280;1776;53.330;11.498;2022-08-01T12:35:34;53480.16;;;-147.39;46.14
3524;BME280;1776;53.330;11.498;2022-08-01T12:38:16;53461.72;;;-147.39;46.36
3524;BME280;1776;53.330;11.498;2022-08-01T12:40:44;53459.66;;;-147.39;45.17
3524;BME280;1776;53.330;11.498;2022-08-01T12:43:16;53469.91;;;-147.39;45.57
3524;BME280;1776;53.330;11.498;2022-08-01T12:45:43;53467.88;;;-147.39;46.16
3524;BME280;1776;53.330;11.498;2022-08-01T12:48:13;53467.88;;;-147.39;45.53
3524;BME280;1776;53.330;11.498;2022-08-01T12:50:45;53467.88;;;-147.39;44.97
3524;BME280;1776;53.330;11.498;2022-08-01T12:53:12;53478.09;;;-147.39;45.66
3524;BME280;1776;53.330;11.498;2022-08-01T12:55:51;53488.34;;;-147.39;45.55
3524;BME280;1776;53.330;11.498;2022-08-01T12:58:18;53504.75;;;-147.39;45.95
3524;BME280;1776;53.330;11.498;2022-08-01T13:00:46;53474.00;;;-147.39;45.90
3524;BME280;1776;53.330;11.498;2022-08-01T13:03:17;53523.19;;;-147.39;45.43
3524;BME280;1776;53.330;11.498;2022-08-01T13:08:13;53519.06;;;-147.39;45.64
3524;BME280;1776;53.330;11.498;2022-08-01T13:10:39;53480.16;;;-147.39;45.49
3524;BME280;1776;53.330;11.498;2022-08-01T13:13:05;53549.81;;;-147.39;45.56
3524;BME280;1776;53.330;11.498;2022-08-01T13:15:33;53469.91;;;-147.39;45.11
3524;BME280;1776;53.330;11.498;2022-08-01T13:18:09;53465.81;;;-147.39;44.93
3524;BME280;1776;53.330;11.498;2022-08-01T13:20:46;53469.91;;;-147.39;44.38
3524;BME280;1776;53.330;11.498;2022-08-01T13:23:17;53447.38;;;-147.39;43.90
3524;BME280;1776;53.330;11.498;2022-08-01T13:25:55;53439.19;;;-147.39;43.21